WetterOnline ( https://www.wetteronline.de )

Wetter aktuell Waibstadt

Aktuelles Wetter: Waibstadt (237m)

6-stündlich | Neueste Meldungen
Ortszeit Temperatur Wetter
Sa, 23.10. 20:00 7.3° C bewölkt
Sa, 23.10. 14:00 12.0° C bewölkt
Sa, 23.10. 8:00 5.9° C bewölkt
Sa, 23.10. 2:00 7.5° C leichter Regen
Fr, 22.10. 20:00 8.6° C bedeckt
Fr, 22.10. 14:00 9.4° C leicht bewölkt
Fr, 22.10. 8:00 3.4° C wolkenlos
Fr, 22.10. 2:00 5.4° C wolkenlos
Ortszeit Temperatur Wetter
Sa, 23.10. 20:00 7.3° C bewölkt
Sa, 23.10. 19:50 7.3° C bewölkt
Sa, 23.10. 19:40 7.7° C wolkig
Sa, 23.10. 19:30 8.0° C fast wolkenlos
Sa, 23.10. 19:20 8.0° C wolkenlos
Sa, 23.10. 19:10 8.2° C wolkenlos
Sa, 23.10. 19:00 8.4° C leicht bewölkt
Sa, 23.10. 18:30 9.9° C bewölkt
Sa, 23.10. 18:00 10.9° C wolkig
Sa, 23.10. 17:30 11.6° C bewölkt
Sa, 23.10. 17:00 11.2° C wolkig
Ortszeit Relative Feuchte Sichtweite
Sa, 23.10. 20:00 86% 45 km
Sa, 23.10. 14:00 61% 40 km
Sa, 23.10. 8:00 97% 26 km
Sa, 23.10. 2:00 87% 21 km
Fr, 22.10. 20:00 75% 45 km
Fr, 22.10. 14:00 75% 40 km
Fr, 22.10. 8:00 99% 15 km
Fr, 22.10. 2:00 98% 29 km
Ortszeit Relative Feuchte Sichtweite
Sa, 23.10. 20:00 86% 45 km
Sa, 23.10. 19:50 86% -
Sa, 23.10. 19:40 84% -
Sa, 23.10. 19:30 80% 55 km
Sa, 23.10. 19:20 80% -
Sa, 23.10. 19:10 79% -
Sa, 23.10. 19:00 74% 50 km
Sa, 23.10. 18:30 72% 26 km
Sa, 23.10. 18:00 66% 60 km
Sa, 23.10. 17:30 59% 50 km
Sa, 23.10. 17:00 65% 55 km
Ortszeit Niederschlagsmenge Niederschlagsart
Sa, 23.10. 20:00 0.0 l/m2 in 12 Std. -
Sa, 23.10. 14:00 0.0 l/m2 in 6 Std. -
Sa, 23.10. 8:00 0.2 l/m2 in 12 Std. Regen
Sa, 23.10. 2:00 0.1 l/m2 in 6 Std. Regen
Fr, 22.10. 20:00 0.0 l/m2 in 12 Std. -
Fr, 22.10. 14:00 0.1 l/m2 in 6 Std. Niederschlag
Fr, 22.10. 8:00 7 l/m2 in 12 Std. -
Fr, 22.10. 2:00 7 l/m2 in 6 Std. Regen
Ortszeit Niederschlagsmenge Niederschlagsart
Sa, 23.10. 20:00 0.0 l/m2 in 1 Std. -
Sa, 23.10. 19:50 keine Meldung -
Sa, 23.10. 19:40 keine Meldung -
Sa, 23.10. 19:30 0.0 l/m2 in 1 Std. -
Sa, 23.10. 19:20 keine Meldung -
Sa, 23.10. 19:10 keine Meldung -
Sa, 23.10. 19:00 0.0 l/m2 in 1 Std. -
Sa, 23.10. 18:30 0.0 l/m2 in 1 Std. -
Sa, 23.10. 18:00 0.0 l/m2 in 1 Std. -
Sa, 23.10. 17:30 0.0 l/m2 in 1 Std. -
Sa, 23.10. 17:00 0.0 l/m2 in 1 Std. -
Ortszeit Stärke Spitze Richtung
km/h Bft. km/h Grad Sektor
Sa, 23.10. 20:00 4 1 14 100° O
Sa, 23.10. 14:00 4 1 14 200° S
Sa, 23.10. 8:00 4 1 25 330° NW
Sa, 23.10. 2:00 13 3 35 250° W
Fr, 22.10. 20:00 22 4 44 240° SW
Fr, 22.10. 14:00 14 3 36 260° W
Fr, 22.10. 8:00 9 2 19 270° W
Fr, 22.10. 2:00 2 1 44 300° NW
Ortszeit Stärke Spitze Richtung
km/h Bft. km/h Grad Sektor
Sa, 23.10. 20:00 4 1 11 100° O
Sa, 23.10. 19:50 4 1 - 100° O
Sa, 23.10. 19:40 4 1 - 100° O
Sa, 23.10. 19:30 4 1 11 80° O
Sa, 23.10. 19:20 4 1 - 80° O
Sa, 23.10. 19:10 7 2 - 110° O
Sa, 23.10. 19:00 6 1 13 120° SO
Sa, 23.10. 18:30 7 2 14 90° O
Sa, 23.10. 18:00 9 2 15 80° O
Sa, 23.10. 17:30 6 1 11 60° NO
Sa, 23.10. 17:00 4 1 11 160° S
Ortszeit Untergrenze Bedeckung Gattung
total tief tief mittel hoch
Sa, 23.10. 20:00 1080 m 7/8 7/8 - - -
Sa, 23.10. 14:00 1500 m 7/8 7/8 - - -
Sa, 23.10. 8:00 480 m 7/8 6/8 - - -
Sa, 23.10. 2:00 1050 m 8/8 7/8 - - -
Fr, 22.10. 20:00 1500 m 8/8 8/8 - - -
Fr, 22.10. 14:00 480 m 3/8 3/8 - - -
Fr, 22.10. 8:00 - 0/8 0/8 - - -
Fr, 22.10. 2:00 - 0/8 0/8 - - -
Ortszeit Bedeckungsgrad in Achtel und Wolkenuntergrenze
Sa, 23.10. 20:00 7(1080m)
Sa, 23.10. 19:50 7(1080m)
Sa, 23.10. 19:40 5(1050m)
Sa, 23.10. 19:30 2(1080m)
Sa, 23.10. 19:20 keine Wolken
Sa, 23.10. 19:10 keine Wolken
Sa, 23.10. 19:00 2(1260m)
Sa, 23.10. 18:30 7(1260m)
Sa, 23.10. 18:00 7(1260m)
Sa, 23.10. 17:30 1(1050m) 7(1290m)
Sa, 23.10. 17:00 5(1380m) 6(1350m)
Ortszeit Luftdruck NN (hPa) Tendenz (hPa in 3 Std.)
Sa, 23.10. 20:00 1030 + 0,5
Sa, 23.10. 14:00 1029 + 0,2
Sa, 23.10. 8:00 1028 + 1,1
Sa, 23.10. 2:00 1026 + 1,5
Fr, 22.10. 20:00 1023 + 1,6
Fr, 22.10. 14:00 1021 0,0
Fr, 22.10. 8:00 1019 + 0,7
Fr, 22.10. 2:00 1018 + 2,5
Ortszeit Luftdruck NN (hPa) Tendenz (hPa in 3 Std.)
Sa, 23.10. 20:00 1030 + 0,5
Sa, 23.10. 19:50 1030 keine Meldung
Sa, 23.10. 19:40 1030 keine Meldung
Sa, 23.10. 19:30 1030 + 0,3
Sa, 23.10. 19:20 1030 keine Meldung
Sa, 23.10. 19:10 1030 keine Meldung
Sa, 23.10. 19:00 1030 + 0,2
Sa, 23.10. 18:30 1029 0,0
Sa, 23.10. 18:00 1029 + 0,2
Sa, 23.10. 17:30 1029 + 0,2
Sa, 23.10. 17:00 1029 + 0,2
Ortszeit Schneehöhe (cm)
Sa, 23.10. 20:00 0
Sa, 23.10. 14:00 0
Sa, 23.10. 8:00 0
Sa, 23.10. 2:00 0
Fr, 22.10. 20:00 0
Fr, 22.10. 14:00 0
Fr, 22.10. 8:00 0
Fr, 22.10. 2:00 0
Ortszeit Schneehöhe (cm)
Sa, 23.10. 20:00 0
Sa, 23.10. 19:50 0
Sa, 23.10. 19:40 0
Sa, 23.10. 19:30 0
Sa, 23.10. 19:20 0
Sa, 23.10. 19:10 0
Sa, 23.10. 19:00 0
Sa, 23.10. 18:30 0
Sa, 23.10. 18:00 0
Sa, 23.10. 17:30 0
Sa, 23.10. 17:00 0
Link zu dieser Seite / Seite empfehlen

Das Wetter in ...